Time,TemperatureF,DewpointF,PressureIn,WindDirection,WindDirectionDegrees,WindSpeedMPH,WindSpeedGustMPH,Humidity,HourlyPrecipIn,Conditions,Clouds,dailyrainin,SolarRadiationWatts/m^2,SoftwareType,DateUTC
2013-01-20 00:04:00,32.9,16.3,30.18,WSW,240,6.0,6.0,50,0.00,,,0.00,0.0,meteohub,2013-01-20 06:04:00,
2013-01-20 00:09:00,32.2,17.8,30.17,WSW,240,2.0,7.0,55,0.00,,,0.00,0.0,meteohub,2013-01-20 06:09:00,
2013-01-20 00:14:00,33.6,18.3,30.17,WSW,240,4.0,7.0,53,0.00,,,0.00,0.0,meteohub,2013-01-20 06:14:00,
2013-01-20 00:19:00,34.2,18.0,30.18,WSW,240,6.0,7.0,51,0.00,,,0.00,0.0,meteohub,2013-01-20 06:19:00,
2013-01-20 00:24:00,33.4,17.8,30.17,SW,229,6.0,6.0,52,0.00,,,0.00,0.0,meteohub,2013-01-20 06:24:00,
2013-01-20 00:29:00,32.9,18.1,30.17,SW,230,7.0,8.0,54,0.00,,,0.00,0.0,meteohub,2013-01-20 06:29:00,
2013-01-20 00:35:00,32.5,17.8,30.17,SW,225,10.0,11.0,54,0.00,,,0.00,0.0,meteohub,2013-01-20 06:35:00,
2013-01-20 00:40:00,32.4,18.5,30.17,SW,225,10.0,11.0,56,0.00,,,0.00,0.0,meteohub,2013-01-20 06:40:00,
2013-01-20 00:45:00,32.4,18.5,30.18,SW,224,9.0,11.0,56,0.00,,,0.00,0.0,meteohub,2013-01-20 06:45:00,
2013-01-20 00:50:00,31.8,18.0,30.17,SW,230,10.0,11.0,56,0.00,,,0.00,0.0,meteohub,2013-01-20 06:50:00,
2013-01-20 00:55:00,31.3,18.1,30.17,SW,228,11.0,11.0,58,0.00,,,0.00,0.0,meteohub,2013-01-20 06:55:00,
2013-01-20 01:00:00,31.6,18.5,30.17,SW,226,12.0,12.0,58,0.00,,,0.00,0.0,meteohub,2013-01-20 07:00:00,
2013-01-20 01:05:00,31.8,18.7,30.17,SW,225,13.0,15.0,58,0.00,,,0.00,0.0,meteohub,2013-01-20 07:05:00,
2013-01-20 01:10:00,31.3,18.1,30.17,SW,227,11.0,15.0,58,0.00,,,0.00,0.0,meteohub,2013-01-20 07:10:00,
2013-01-20 01:15:00,31.3,18.7,30.17,SW,234,12.0,15.0,59,0.00,,,0.00,0.0,meteohub,2013-01-20 07:15:00,
2013-01-20 01:20:00,30.9,18.3,30.17,SW,234,13.0,14.0,59,0.00,,,0.00,0.0,meteohub,2013-01-20 07:20:00,
2013-01-20 01:25:00,30.9,18.7,30.17,WSW,238,11.0,14.0,60,0.00,,,0.00,0.0,meteohub,2013-01-20 07:25:00,
2013-01-20 01:30:00,30.7,18.5,30.17,WSW,240,11.0,13.0,60,0.00,,,0.00,0.0,meteohub,2013-01-20 07:30:00,
2013-01-20 01:35:00,30.6,18.7,30.17,WSW,238,11.0,13.0,61,0.00,,,0.00,0.0,meteohub,2013-01-20 07:35:00,
2013-01-20 01:40:00,30.6,19.0,30.16,WSW,240,12.0,12.0,62,0.00,,,0.00,0.0,meteohub,2013-01-20 07:40:00,
2013-01-20 01:46:00,30.6,19.0,30.16,WSW,245,11.0,12.0,62,0.00,,,0.00,0.0,meteohub,2013-01-20 07:46:00,
2013-01-20 01:51:00,30.0,18.5,30.16,WSW,242,11.0,12.0,62,0.00,,,0.00,0.0,meteohub,2013-01-20 07:51:00,
2013-01-20 01:56:00,30.0,18.5,30.16,WSW,241,11.0,12.0,62,0.00,,,0.00,0.0,meteohub,2013-01-20 07:56:00,
2013-01-20 02:01:00,29.7,18.7,30.16,WSW,241,11.0,12.0,63,0.00,,,0.00,0.0,meteohub,2013-01-20 08:01:00,
2013-01-20 02:06:00,29.8,18.9,30.16,SW,234,10.0,12.0,63,0.00,,,0.00,0.0,meteohub,2013-01-20 08:06:00,
2013-01-20 02:11:00,29.8,18.9,30.16,SW,231,12.0,12.0,63,0.00,,,0.00,0.0,meteohub,2013-01-20 08:11:00,
2013-01-20 02:16:00,30.2,19.0,30.16,SW,230,10.0,13.0,63,0.00,,,0.00,0.0,meteohub,2013-01-20 08:16:00,
2013-01-20 02:21:00,29.8,18.9,30.16,SW,228,10.0,13.0,63,0.00,,,0.00,0.0,meteohub,2013-01-20 08:21:00,
2013-01-20 02:26:00,29.7,18.7,30.16,SW,233,11.0,13.0,63,0.00,,,0.00,0.0,meteohub,2013-01-20 08:26:00,
2013-01-20 02:31:00,29.7,18.7,30.16,SW,231,11.0,12.0,63,0.00,,,0.00,0.0,meteohub,2013-01-20 08:31:00,
2013-01-20 02:36:00,29.5,18.9,30.16,SW,234,11.0,12.0,64,0.00,,,0.00,0.0,meteohub,2013-01-20 08:36:00,
2013-01-20 02:41:00,29.1,18.5,30.15,SW,234,10.0,12.0,64,0.00,,,0.00,0.0,meteohub,2013-01-20 08:41:00,
2013-01-20 02:46:00,28.9,18.7,30.15,SW,235,10.0,12.0,65,0.00,,,0.00,0.0,meteohub,2013-01-20 08:46:00,
2013-01-20 02:51:00,28.8,18.9,30.15,SW,232,10.0,11.0,66,0.00,,,0.00,0.0,meteohub,2013-01-20 08:51:00,
2013-01-20 02:57:00,28.8,18.9,30.15,SW,232,11.0,12.0,66,0.00,,,0.00,0.0,meteohub,2013-01-20 08:57:00,
2013-01-20 03:02:00,28.8,18.9,30.15,WSW,240,11.0,12.0,66,0.00,,,0.00,0.0,meteohub,2013-01-20 09:02:00,
2013-01-20 03:07:00,28.2,18.3,30.15,WSW,242,10.0,13.0,66,0.00,,,0.00,0.0,meteohub,2013-01-20 09:07:00,
2013-01-20 03:12:00,27.9,18.3,30.15,WSW,239,8.0,13.0,67,0.00,,,0.00,0.0,meteohub,2013-01-20 09:12:00,
2013-01-20 03:17:00,27.3,18.1,30.15,WSW,239,10.0,13.0,68,0.00,,,0.00,0.0,meteohub,2013-01-20 09:17:00,
2013-01-20 03:22:00,27.1,18.3,30.15,WSW,239,9.0,12.0,69,0.00,,,0.00,0.0,meteohub,2013-01-20 09:22:00,
2013-01-20 03:27:00,27.0,18.1,30.15,SW,235,10.0,11.0,69,0.00,,,0.00,0.0,meteohub,2013-01-20 09:27:00,
2013-01-20 03:32:00,27.1,18.7,30.14,SW,232,11.0,11.0,70,0.00,,,0.00,0.0,meteohub,2013-01-20 09:32:00,
2013-01-20 03:37:00,28.0,19.2,30.14,SW,232,10.0,12.0,69,0.00,,,0.00,0.0,meteohub,2013-01-20 09:37:00,
2013-01-20 03:42:00,28.6,19.0,30.14,SW,232,11.0,12.0,67,0.00,,,0.00,0.0,meteohub,2013-01-20 09:42:00,
2013-01-20 03:47:00,28.6,18.7,30.14,SW,232,11.0,12.0,66,0.00,,,0.00,0.0,meteohub,2013-01-20 09:47:00,
2013-01-20 03:52:00,28.6,18.7,30.14,SW,233,11.0,12.0,66,0.00,,,0.00,0.0,meteohub,2013-01-20 09:52:00,
2013-01-20 03:57:00,28.8,18.9,30.14,SW,234,12.0,12.0,66,0.00,,,0.00,0.0,meteohub,2013-01-20 09:57:00,
2013-01-20 04:02:00,28.8,18.9,30.14,SW,232,11.0,12.0,66,0.00,,,0.00,0.0,meteohub,2013-01-20 10:02:00,
2013-01-20 04:07:00,28.9,19.0,30.14,SW,233,11.0,12.0,66,0.00,,,0.00,0.0,meteohub,2013-01-20 10:07:00,
2013-01-20 04:12:00,28.9,19.0,30.13,SW,233,11.0,12.0,66,0.00,,,0.00,0.0,meteohub,2013-01-20 10:12:00,
2013-01-20 04:18:00,28.9,19.0,30.13,SW,232,11.0,12.0,66,0.00,,,0.00,0.0,meteohub,2013-01-20 10:18:00,
2013-01-20 04:23:00,29.1,19.2,30.13,SW,229,11.0,12.0,66,0.00,,,0.00,0.0,meteohub,2013-01-20 10:23:00,
2013-01-20 04:28:00,28.8,19.2,30.12,SW,225,11.0,11.0,67,0.00,,,0.00,0.0,meteohub,2013-01-20 10:28:00,
2013-01-20 04:33:00,28.6,19.0,30.12,SW,225,11.0,13.0,67,0.00,,,0.00,0.0,meteohub,2013-01-20 10:33:00,
2013-01-20 04:38:00,28.4,18.9,30.12,SW,229,13.0,13.0,67,0.00,,,0.00,0.0,meteohub,2013-01-20 10:38:00,
2013-01-20 04:43:00,28.2,19.0,30.12,SW,229,12.0,13.0,68,0.00,,,0.00,0.0,meteohub,2013-01-20 10:43:00,
2013-01-20 04:48:00,28.4,18.9,30.12,SW,229,11.0,13.0,67,0.00,,,0.00,0.0,meteohub,2013-01-20 10:48:00,
2013-01-20 04:53:00,28.0,18.9,30.12,SW,230,11.0,13.0,68,0.00,,,0.00,0.0,meteohub,2013-01-20 10:53:00,
2013-01-20 04:58:00,27.7,18.9,30.11,SW,232,12.0,12.0,69,0.00,,,0.00,0.0,meteohub,2013-01-20 10:58:00,
2013-01-20 05:03:00,27.1,18.7,30.11,SW,230,11.0,12.0,70,0.00,,,0.00,0.0,meteohub,2013-01-20 11:03:00,
2013-01-20 05:09:00,27.1,18.7,30.11,SW,229,12.0,12.0,70,0.00,,,0.00,0.0,meteohub,2013-01-20 11:09:00,
2013-01-20 05:14:00,27.3,18.9,30.10,SW,225,11.0,13.0,70,0.00,,,0.00,0.0,meteohub,2013-01-20 11:14:00,
2013-01-20 05:19:00,28.0,19.2,30.10,SW,223,11.0,13.0,69,0.00,,,0.00,0.0,meteohub,2013-01-20 11:19:00,
2013-01-20 05:24:00,28.0,18.9,30.10,SW,221,11.0,13.0,68,0.00,,,0.00,0.0,meteohub,2013-01-20 11:24:00,
2013-01-20 05:29:00,27.9,19.0,30.10,SW,221,12.0,13.0,69,0.00,,,0.00,0.0,meteohub,2013-01-20 11:29:00,
2013-01-20 05:34:00,27.1,18.7,30.10,SW,224,12.0,13.0,70,0.00,,,0.00,0.0,meteohub,2013-01-20 11:34:00,
2013-01-20 05:39:00,27.0,18.9,30.09,SW,220,13.0,13.0,71,0.00,,,0.00,0.0,meteohub,2013-01-20 11:39:00,
2013-01-20 05:44:00,27.7,19.2,30.09,SW,228,12.0,13.0,70,0.00,,,0.00,0.0,meteohub,2013-01-20 11:44:00,
2013-01-20 05:49:00,27.3,18.9,30.09,SW,223,12.0,15.0,70,0.00,,,0.00,0.0,meteohub,2013-01-20 11:49:00,
2013-01-20 05:54:00,27.1,19.0,30.09,SW,226,11.0,15.0,71,0.00,,,0.00,0.0,meteohub,2013-01-20 11:54:00,
2013-01-20 05:59:00,27.3,19.2,30.09,SW,221,11.0,15.0,71,0.00,,,0.00,0.0,meteohub,2013-01-20 11:59:00,
2013-01-20 06:04:00,27.3,19.2,30.08,SW,220,11.0,13.0,71,0.00,,,0.00,0.0,meteohub,2013-01-20 12:04:00,
2013-01-20 06:09:00,27.3,19.2,30.08,SW,224,12.0,13.0,71,0.00,,,0.00,0.0,meteohub,2013-01-20 12:09:00,
2013-01-20 06:14:00,27.7,19.6,30.08,SW,227,11.0,13.0,71,0.00,,,0.00,0.0,meteohub,2013-01-20 12:14:00,
2013-01-20 06:19:00,27.3,19.2,30.08,SW,226,13.0,13.0,71,0.00,,,0.00,0.0,meteohub,2013-01-20 12:19:00,
2013-01-20 06:24:00,27.3,19.6,30.08,SW,224,11.0,13.0,72,0.00,,,0.00,0.0,meteohub,2013-01-20 12:24:00,
2013-01-20 06:29:00,27.7,19.6,30.08,SW,225,11.0,13.0,71,0.00,,,0.00,0.0,meteohub,2013-01-20 12:29:00,
2013-01-20 06:34:00,28.2,19.8,30.08,SW,223,11.0,13.0,70,0.00,,,0.00,0.0,meteohub,2013-01-20 12:34:00,
2013-01-20 06:39:00,28.0,19.6,30.08,SW,221,11.0,13.0,70,0.00,,,0.00,0.0,meteohub,2013-01-20 12:39:00,
2013-01-20 06:44:00,27.7,19.2,30.08,SW,219,11.0,13.0,70,0.00,,,0.00,0.0,meteohub,2013-01-20 12:44:00,
2013-01-20 06:49:00,27.7,19.6,30.08,SSW,213,11.0,12.0,71,0.00,,,0.00,0.0,meteohub,2013-01-20 12:49:00,
2013-01-20 06:55:00,27.9,19.8,30.08,SW,214,12.0,12.0,71,0.00,,,0.00,0.0,meteohub,2013-01-20 12:55:00,
2013-01-20 07:00:00,28.6,20.1,30.08,SW,217,13.0,13.0,70,0.00,,,0.00,0.0,meteohub,2013-01-20 13:00:00,
2013-01-20 07:05:00,28.8,19.9,30.07,SW,219,13.0,14.0,69,0.00,,,0.00,0.0,meteohub,2013-01-20 13:05:00,
2013-01-20 07:10:00,29.1,19.9,30.07,SW,217,13.0,14.0,68,0.00,,,0.00,0.0,meteohub,2013-01-20 13:10:00,
2013-01-20 07:15:00,29.1,19.6,30.07,SSW,213,8.0,15.0,67,0.00,,,0.00,0.0,meteohub,2013-01-20 13:15:00,
2013-01-20 07:20:00,28.9,19.4,30.07,SW,214,10.0,15.0,67,0.00,,,0.00,0.0,meteohub,2013-01-20 13:20:00,
2013-01-20 07:25:00,28.6,19.8,30.07,SW,215,11.0,14.0,69,0.00,,,0.00,0.0,meteohub,2013-01-20 13:25:00,
2013-01-20 07:30:00,28.6,19.8,30.07,SW,217,10.0,12.0,69,0.00,,,0.00,0.0,meteohub,2013-01-20 13:30:00,
2013-01-20 07:35:00,28.2,19.4,30.07,SSW,212,10.0,12.0,69,0.00,,,0.00,0.0,meteohub,2013-01-20 13:35:00,
2013-01-20 07:40:00,28.4,19.6,30.07,SSW,209,9.0,12.0,69,0.00,,,0.00,0.0,meteohub,2013-01-20 13:40:00,
2013-01-20 07:45:00,28.2,19.4,30.06,SSW,207,9.0,11.0,69,0.00,,,0.00,0.0,meteohub,2013-01-20 13:45:00,
2013-01-20 07:51:00,27.9,19.4,30.06,SW,214,8.0,11.0,70,0.00,,,0.00,0.0,meteohub,2013-01-20 13:51:00,
2013-01-20 07:56:00,27.7,19.2,30.06,SSW,211,8.0,11.0,70,0.00,,,0.00,5.0,meteohub,2013-01-20 13:56:00,
2013-01-20 08:01:00,28.0,19.6,30.06,SW,215,9.0,11.0,70,0.00,,,0.00,7.0,meteohub,2013-01-20 14:01:00,
2013-01-20 08:06:00,28.6,20.1,30.06,SW,221,8.0,12.0,70,0.00,,,0.00,9.0,meteohub,2013-01-20 14:06:00,
2013-01-20 08:11:00,29.1,20.3,30.07,SW,223,9.0,12.0,69,0.00,,,0.00,11.0,meteohub,2013-01-20 14:11:00,
2013-01-20 08:16:00,29.7,20.5,30.07,SW,226,12.0,12.0,68,0.00,,,0.00,19.0,meteohub,2013-01-20 14:16:00,
2013-01-20 08:21:00,30.4,20.7,30.07,SW,217,10.0,13.0,67,0.00,,,0.00,28.0,meteohub,2013-01-20 14:21:00,
2013-01-20 08:26:00,30.7,20.7,30.07,SW,217,10.0,13.0,66,0.00,,,0.00,40.0,meteohub,2013-01-20 14:26:00,
2013-01-20 08:31:00,30.9,20.8,30.07,SW,215,6.0,13.0,66,0.00,,,0.00,54.0,meteohub,2013-01-20 14:31:00,
2013-01-20 08:36:00,31.6,21.6,30.07,SW,214,8.0,12.0,66,0.00,,,0.00,63.0,meteohub,2013-01-20 14:36:00,
2013-01-20 08:41:00,32.2,21.4,30.06,SW,219,9.0,12.0,64,0.00,,,0.00,84.0,meteohub,2013-01-20 14:41:00,
2013-01-20 08:46:00,32.9,21.7,30.06,SW,217,9.0,12.0,63,0.00,,,0.00,100.0,meteohub,2013-01-20 14:46:00,
2013-01-20 08:51:00,33.4,21.7,30.07,SW,218,6.0,12.0,62,0.00,,,0.00,120.0,meteohub,2013-01-20 14:51:00,
2013-01-20 08:57:00,34.2,22.1,30.07,SW,217,9.0,12.0,61,0.00,,,0.00,139.0,meteohub,2013-01-20 14:57:00,
2013-01-20 09:02:00,34.7,22.6,30.07,SSW,212,7.0,12.0,61,0.00,,,0.00,158.0,meteohub,2013-01-20 15:02:00,
2013-01-20 09:07:00,35.4,23.0,30.07,SSW,209,7.0,11.0,60,0.00,,,0.00,178.0,meteohub,2013-01-20 15:07:00,
2013-01-20 09:12:00,36.3,23.4,30.07,SSW,208,7.0,11.0,59,0.00,,,0.00,197.0,meteohub,2013-01-20 15:12:00,
2013-01-20 09:17:00,37.6,23.7,30.07,SSW,207,11.0,11.0,57,0.00,,,0.00,213.0,meteohub,2013-01-20 15:17:00,
2013-01-20 09:22:00,39.2,23.9,30.07,SSW,208,9.0,13.0,54,0.00,,,0.00,229.0,meteohub,2013-01-20 15:22:00,
2013-01-20 09:27:00,40.3,24.1,30.07,SSW,206,12.0,14.0,52,0.00,,,0.00,243.0,meteohub,2013-01-20 15:27:00,
2013-01-20 09:32:00,40.8,23.5,30.07,SSW,213,10.0,14.0,50,0.00,,,0.00,258.0,meteohub,2013-01-20 15:32:00,
2013-01-20 09:37:00,41.2,23.9,30.07,SSW,207,7.0,14.0,50,0.00,,,0.00,274.0,meteohub,2013-01-20 15:37:00,
2013-01-20 09:42:00,41.5,24.3,30.07,SSW,209,10.0,14.0,50,0.00,,,0.00,288.0,meteohub,2013-01-20 15:42:00,
2013-01-20 09:47:00,42.3,24.4,30.07,SSW,206,9.0,14.0,49,0.00,,,0.00,302.0,meteohub,2013-01-20 15:47:00,
2013-01-20 09:53:00,43.2,24.3,30.06,SSW,203,12.0,12.0,47,0.00,,,0.00,316.0,meteohub,2013-01-20 15:53:00,
2013-01-20 09:58:00,44.1,24.1,30.06,SSW,203,16.0,16.0,45,0.00,,,0.00,330.0,meteohub,2013-01-20 15:58:00,
2013-01-20 10:03:00,44.8,24.3,30.06,SSW,198,19.0,20.0,44,0.00,,,0.00,343.0,meteohub,2013-01-20 16:03:00,
2013-01-20 10:08:00,45.5,23.7,30.06,SSW,196,16.0,20.0,42,0.00,,,0.00,359.0,meteohub,2013-01-20 16:08:00,
2013-01-20 10:13:00,45.7,23.9,30.06,SSW,205,14.0,20.0,42,0.00,,,0.00,373.0,meteohub,2013-01-20 16:13:00,
2013-01-20 10:18:00,46.0,24.8,30.06,SSW,212,9.0,20.0,43,0.00,,,0.00,387.0,meteohub,2013-01-20 16:18:00,
2013-01-20 10:23:00,46.6,24.8,30.06,SSW,205,15.0,20.0,42,0.00,,,0.00,399.0,meteohub,2013-01-20 16:23:00,
2013-01-20 10:28:00,47.1,24.1,30.07,SW,223,12.0,17.0,40,0.00,,,0.00,411.0,meteohub,2013-01-20 16:28:00,
2013-01-20 10:33:00,47.5,25.0,30.07,SSW,211,12.0,18.0,41,0.00,,,0.00,422.0,meteohub,2013-01-20 16:33:00,
2013-01-20 10:38:00,48.0,24.8,30.07,SW,229,11.0,18.0,40,0.00,,,0.00,432.0,meteohub,2013-01-20 16:38:00,
2013-01-20 10:43:00,48.6,24.8,30.08,SW,220,13.0,18.0,39,0.00,,,0.00,443.0,meteohub,2013-01-20 16:43:00,
2013-01-20 10:48:00,48.7,24.3,30.08,SW,227,13.0,16.0,38,0.00,,,0.00,455.0,meteohub,2013-01-20 16:48:00,
2013-01-20 10:53:00,49.3,24.8,30.07,SW,226,14.0,16.0,38,0.00,,,0.00,466.0,meteohub,2013-01-20 16:53:00,
2013-01-20 10:58:00,49.5,25.0,30.08,SW,232,14.0,16.0,38,0.00,,,0.00,476.0,meteohub,2013-01-20 16:58:00,
2013-01-20 11:04:00,49.6,25.0,30.08,SW,226,12.0,16.0,38,0.00,,,0.00,487.0,meteohub,2013-01-20 17:04:00,
2013-01-20 11:09:00,50.2,25.5,30.07,WSW,250,13.0,15.0,38,0.00,,,0.00,496.0,meteohub,2013-01-20 17:09:00,
2013-01-20 11:14:00,50.5,24.6,30.07,WSW,237,17.0,17.0,36,0.00,,,0.00,506.0,meteohub,2013-01-20 17:14:00,
2013-01-20 11:19:00,50.4,24.4,30.06,SW,233,15.0,17.0,36,0.00,,,0.00,515.0,meteohub,2013-01-20 17:19:00,
2013-01-20 11:24:00,50.5,24.6,30.06,SW,220,14.0,21.0,36,0.00,,,0.00,524.0,meteohub,2013-01-20 17:24:00,
2013-01-20 11:29:00,50.7,24.8,30.06,WSW,242,12.0,21.0,36,0.00,,,0.00,531.0,meteohub,2013-01-20 17:29:00,
2013-01-20 11:34:00,50.7,24.1,30.05,SW,232,16.0,21.0,35,0.00,,,0.00,540.0,meteohub,2013-01-20 17:34:00,
2013-01-20 11:39:00,51.3,23.9,30.05,SW,221,18.0,19.0,34,0.00,,,0.00,547.0,meteohub,2013-01-20 17:39:00,
2013-01-20 11:44:00,52.0,23.0,30.05,SW,227,18.0,22.0,32,0.00,,,0.00,554.0,meteohub,2013-01-20 17:44:00,
2013-01-20 11:49:00,52.3,23.4,30.04,SSW,211,12.0,22.0,32,0.00,,,0.00,557.0,meteohub,2013-01-20 17:49:00,
2013-01-20 11:54:00,53.1,22.5,30.04,SW,227,15.0,22.0,30,0.00,,,0.00,566.0,meteohub,2013-01-20 17:54:00,
2013-01-20 11:59:00,53.2,20.1,30.04,SW,236,21.0,21.0,27,0.00,,,0.00,571.0,meteohub,2013-01-20 17:59:00,
2013-01-20 12:04:00,54.0,21.6,30.04,WSW,242,14.0,21.0,28,0.00,,,0.00,545.0,meteohub,2013-01-20 18:04:00,
2013-01-20 12:09:00,54.7,21.4,30.03,WSW,244,21.0,22.0,27,0.00,,,0.00,568.0,meteohub,2013-01-20 18:09:00,
2013-01-20 12:14:00,54.9,20.7,30.04,West,262,17.0,22.0,26,0.00,,,0.00,587.0,meteohub,2013-01-20 18:14:00,
2013-01-20 12:20:00,54.9,20.7,30.03,WSW,249,12.0,22.0,26,0.00,,,0.00,591.0,meteohub,2013-01-20 18:20:00,
2013-01-20 12:25:00,55.0,20.8,30.02,West,271,12.0,22.0,26,0.00,,,0.00,594.0,meteohub,2013-01-20 18:25:00,
2013-01-20 12:30:00,55.9,20.7,30.02,NW,306,7.0,22.0,25,0.00,,,0.00,599.0,meteohub,2013-01-20 18:30:00,
2013-01-20 12:35:00,56.5,21.0,30.02,West,269,13.0,24.0,25,0.00,,,0.00,601.0,meteohub,2013-01-20 18:35:00,
2013-01-20 12:40:00,56.8,19.4,30.01,WNW,297,13.0,24.0,23,0.00,,,0.00,603.0,meteohub,2013-01-20 18:40:00,
2013-01-20 12:45:00,56.8,18.3,30.01,NW,311,16.0,24.0,22,0.00,,,0.00,605.0,meteohub,2013-01-20 18:45:00,
2013-01-20 12:50:00,56.8,18.3,30.01,NW,310,18.0,22.0,22,0.00,,,0.00,606.0,meteohub,2013-01-20 18:50:00,
2013-01-20 12:55:00,57.4,18.9,30.01,NW,321,17.0,21.0,22,0.00,,,0.00,608.0,meteohub,2013-01-20 18:55:00,
2013-01-20 13:00:00,56.7,18.3,30.00,NW,311,16.0,19.0,22,0.00,,,0.00,610.0,meteohub,2013-01-20 19:00:00,
2013-01-20 13:05:00,56.1,16.7,30.01,North,0,9.0,22.0,21,0.00,,,0.00,610.0,meteohub,2013-01-20 19:05:00,
2013-01-20 13:10:00,56.1,17.8,30.00,NNW,339,19.0,22.0,22,0.00,,,0.00,610.0,meteohub,2013-01-20 19:10:00,
2013-01-20 13:15:00,56.1,18.9,30.00,NW,323,11.0,22.0,23,0.00,,,0.00,608.0,meteohub,2013-01-20 19:15:00,
2013-01-20 13:20:00,55.9,17.6,30.00,NNW,332,18.0,21.0,22,0.00,,,0.00,606.0,meteohub,2013-01-20 19:20:00,
2013-01-20 13:26:00,55.9,18.7,30.00,NNW,336,18.0,21.0,23,0.00,,,0.00,605.0,meteohub,2013-01-20 19:26:00,
2013-01-20 13:31:00,55.9,18.7,29.99,NNW,334,19.0,21.0,23,0.00,,,0.00,603.0,meteohub,2013-01-20 19:31:00,
2013-01-20 13:36:00,56.1,17.8,29.99,NNW,344,17.0,21.0,22,0.00,,,0.00,601.0,meteohub,2013-01-20 19:36:00,
2013-01-20 13:41:00,56.3,19.0,30.00,NNW,339,15.0,21.0,23,0.00,,,0.00,596.0,meteohub,2013-01-20 19:41:00,
2013-01-20 13:46:00,55.9,18.7,30.00,NNW,342,13.0,22.0,23,0.00,,,0.00,594.0,meteohub,2013-01-20 19:46:00,
2013-01-20 13:51:00,55.9,18.7,30.00,NNW,339,14.0,22.0,23,0.00,,,0.00,589.0,meteohub,2013-01-20 19:51:00,
2013-01-20 13:56:00,55.9,18.7,30.00,NNW,333,14.0,22.0,23,0.00,,,0.00,585.0,meteohub,2013-01-20 19:56:00,
2013-01-20 14:01:00,55.9,18.7,30.00,NNW,347,12.0,24.0,23,0.00,,,0.00,578.0,meteohub,2013-01-20 20:01:00,
2013-01-20 14:06:00,56.1,17.8,30.00,North,355,19.0,24.0,22,0.00,,,0.00,575.0,meteohub,2013-01-20 20:06:00,
2013-01-20 14:11:00,56.5,17.1,30.00,North,5,9.0,24.0,21,0.00,,,0.00,568.0,meteohub,2013-01-20 20:11:00,
2013-01-20 14:16:00,56.5,18.1,30.00,NNE,15,21.0,21.0,22,0.00,,,0.00,561.0,meteohub,2013-01-20 20:16:00,
2013-01-20 14:21:00,55.9,17.6,30.00,North,11,16.0,25.0,22,0.00,,,0.00,554.0,meteohub,2013-01-20 20:21:00,
2013-01-20 14:26:00,55.9,17.6,30.00,NNW,327,18.0,25.0,22,0.00,,,0.00,548.0,meteohub,2013-01-20 20:26:00,
2013-01-20 14:31:00,55.9,17.6,30.00,North,355,14.0,25.0,22,0.00,,,0.00,541.0,meteohub,2013-01-20 20:31:00,
2013-01-20 14:36:00,56.1,17.8,30.01,NNW,342,16.0,25.0,22,0.00,,,0.00,534.0,meteohub,2013-01-20 20:36:00,
2013-01-20 14:41:00,56.5,19.0,30.00,North,5,21.0,26.0,23,0.00,,,0.00,526.0,meteohub,2013-01-20 20:41:00,
2013-01-20 14:46:00,56.7,18.3,30.01,NNW,333,23.0,26.0,22,0.00,,,0.00,517.0,meteohub,2013-01-20 20:46:00,
2013-01-20 14:51:00,56.1,18.9,30.01,NNE,28,20.0,28.0,23,0.00,,,0.00,506.0,meteohub,2013-01-20 20:51:00,
2013-01-20 14:57:00,56.1,19.8,30.01,North,9,15.0,28.0,24,0.00,,,0.00,496.0,meteohub,2013-01-20 20:57:00,
2013-01-20 15:02:00,55.8,19.6,30.02,North,0,21.0,28.0,24,0.00,,,0.00,483.0,meteohub,2013-01-20 21:02:00,
2013-01-20 15:07:00,55.8,18.5,30.02,NNW,335,17.0,28.0,23,0.00,,,0.00,476.0,meteohub,2013-01-20 21:07:00,
2013-01-20 15:12:00,55.8,18.5,30.02,NNE,17,25.0,29.0,23,0.00,,,0.00,464.0,meteohub,2013-01-20 21:12:00,
2013-01-20 15:17:00,55.4,19.2,30.02,NE,38,23.0,29.0,24,0.00,,,0.00,455.0,meteohub,2013-01-20 21:17:00,
2013-01-20 15:22:00,55.4,19.2,30.02,NNE,26,16.0,29.0,24,0.00,,,0.00,441.0,meteohub,2013-01-20 21:22:00,
2013-01-20 15:27:00,55.4,20.1,30.03,NNW,332,19.0,29.0,25,0.00,,,0.00,432.0,meteohub,2013-01-20 21:27:00,
2013-01-20 15:32:00,54.9,19.8,30.03,North,9,16.0,28.0,25,0.00,,,0.00,422.0,meteohub,2013-01-20 21:32:00,
2013-01-20 15:37:00,55.0,20.8,30.03,North,5,22.0,27.0,26,0.00,,,0.00,408.0,meteohub,2013-01-20 21:37:00,
2013-01-20 15:42:00,55.0,19.8,30.03,NNE,24,18.0,27.0,25,0.00,,,0.00,397.0,meteohub,2013-01-20 21:42:00,
2013-01-20 15:47:00,54.7,19.6,30.03,NNE,18,23.0,27.0,25,0.00,,,0.00,383.0,meteohub,2013-01-20 21:47:00,
2013-01-20 15:52:00,54.7,19.6,30.03,North,0,13.0,27.0,25,0.00,,,0.00,367.0,meteohub,2013-01-20 21:52:00,
2013-01-20 15:57:00,54.1,19.0,30.03,NNE,13,24.0,27.0,25,0.00,,,0.00,359.0,meteohub,2013-01-20 21:57:00,
2013-01-20 16:02:00,53.8,18.9,30.03,North,11,23.0,28.0,25,0.00,,,0.00,343.0,meteohub,2013-01-20 22:02:00,
2013-01-20 16:07:00,53.8,20.7,30.03,NW,321,14.0,28.0,27,0.00,,,0.00,329.0,meteohub,2013-01-20 22:07:00,
2013-01-20 16:13:00,53.2,20.1,30.03,North,10,22.0,28.0,27,0.00,,,0.00,315.0,meteohub,2013-01-20 22:13:00,
2013-01-20 16:18:00,53.1,19.9,30.04,NNE,12,17.0,28.0,27,0.00,,,0.00,301.0,meteohub,2013-01-20 22:18:00,
2013-01-20 16:23:00,52.9,19.8,30.04,North,5,26.0,31.0,27,0.00,,,0.00,285.0,meteohub,2013-01-20 22:23:00,
2013-01-20 16:28:00,53.1,19.9,30.04,NNE,15,18.0,31.0,27,0.00,,,0.00,269.0,meteohub,2013-01-20 22:28:00,
2013-01-20 16:33:00,52.9,19.8,30.04,North,11,24.0,31.0,27,0.00,,,0.00,253.0,meteohub,2013-01-20 22:33:00,
2013-01-20 16:38:00,52.9,18.9,30.04,NNE,22,16.0,29.0,26,0.00,,,0.00,234.0,meteohub,2013-01-20 22:38:00,
2013-01-20 16:43:00,52.5,18.7,30.05,NNE,17,21.0,29.0,26,0.00,,,0.00,214.0,meteohub,2013-01-20 22:43:00,
2013-01-20 16:48:00,52.5,18.7,30.05,NNE,12,18.0,29.0,26,0.00,,,0.00,193.0,meteohub,2013-01-20 22:48:00,
2013-01-20 16:53:00,52.3,19.4,30.05,NNE,23,17.0,28.0,27,0.00,,,0.00,176.0,meteohub,2013-01-20 22:53:00,
2013-01-20 16:58:00,52.2,20.1,30.05,NNE,18,18.0,27.0,28,0.00,,,0.00,155.0,meteohub,2013-01-20 22:58:00,
2013-01-20 17:03:00,51.6,20.3,30.06,NNE,21,23.0,27.0,29,0.00,,,0.00,135.0,meteohub,2013-01-20 23:03:00,
2013-01-20 17:08:00,51.4,21.0,30.06,NNE,24,19.0,27.0,30,0.00,,,0.00,116.0,meteohub,2013-01-20 23:08:00,
2013-01-20 17:13:00,50.9,21.4,30.06,North,11,19.0,27.0,31,0.00,,,0.00,98.0,meteohub,2013-01-20 23:13:00,
2013-01-20 17:18:00,50.5,21.0,30.07,NNE,21,22.0,27.0,31,0.00,,,0.00,81.0,meteohub,2013-01-20 23:18:00,
2013-01-20 17:24:00,50.0,21.4,30.07,North,11,20.0,27.0,32,0.00,,,0.00,65.0,meteohub,2013-01-20 23:24:00,
2013-01-20 17:29:00,49.6,21.7,30.08,NE,38,20.0,26.0,33,0.00,,,0.00,49.0,meteohub,2013-01-20 23:29:00,
2013-01-20 17:34:00,49.3,21.4,30.08,NNE,28,13.0,26.0,33,0.00,,,0.00,37.0,meteohub,2013-01-20 23:34:00,
2013-01-20 17:39:00,48.7,21.6,30.08,NNE,27,20.0,24.0,34,0.00,,,0.00,26.0,meteohub,2013-01-20 23:39:00,
2013-01-20 17:44:00,48.4,21.9,30.09,NNE,19,12.0,24.0,35,0.00,,,0.00,19.0,meteohub,2013-01-20 23:44:00,
2013-01-20 17:49:00,47.8,22.1,30.09,NNE,22,9.0,21.0,36,0.00,,,0.00,14.0,meteohub,2013-01-20 23:49:00,
2013-01-20 17:54:00,46.9,21.4,30.10,NNE,20,7.0,20.0,36,0.00,,,0.00,11.0,meteohub,2013-01-20 23:54:00,
2013-01-20 17:59:00,46.2,21.4,30.10,NNE,21,8.0,17.0,37,0.00,,,0.00,5.0,meteohub,2013-01-20 23:59:00,
2013-01-20 18:04:00,45.7,21.6,30.10,NNE,22,8.0,13.0,38,0.00,,,0.00,0.0,meteohub,2013-01-21 00:04:00,
2013-01-20 18:09:00,45.0,22.1,30.10,NNE,16,9.0,13.0,40,0.00,,,0.00,0.0,meteohub,2013-01-21 00:09:00,
2013-01-20 18:14:00,44.4,22.1,30.11,NNE,17,10.0,13.0,41,0.00,,,0.00,0.0,meteohub,2013-01-21 00:14:00,
2013-01-20 18:19:00,43.9,22.3,30.11,NNE,21,8.0,13.0,42,0.00,,,0.00,0.0,meteohub,2013-01-21 00:19:00,
2013-01-20 18:24:00,43.3,21.7,30.11,NNE,16,9.0,13.0,42,0.00,,,0.00,0.0,meteohub,2013-01-21 00:24:00,
2013-01-20 18:29:00,43.0,22.1,30.12,NNE,21,9.0,13.0,43,0.00,,,0.00,0.0,meteohub,2013-01-21 00:29:00,
2013-01-20 18:34:00,42.4,21.6,30.12,NNE,16,9.0,12.0,43,0.00,,,0.00,0.0,meteohub,2013-01-21 00:34:00,
2013-01-20 18:39:00,42.1,21.7,30.12,NNE,13,13.0,13.0,44,0.00,,,0.00,0.0,meteohub,2013-01-21 00:39:00,
2013-01-20 18:44:00,42.4,22.1,30.12,NNE,19,12.0,14.0,44,0.00,,,0.00,0.0,meteohub,2013-01-21 00:44:00,
2013-01-20 18:49:00,42.3,21.9,30.13,NNE,17,8.0,15.0,44,0.00,,,0.00,0.0,meteohub,2013-01-21 00:49:00,
2013-01-20 18:54:00,41.9,21.6,30.13,NNE,15,14.0,15.0,44,0.00,,,0.00,0.0,meteohub,2013-01-21 00:54:00,
2013-01-20 19:00:00,41.5,21.7,30.13,NNE,15,12.0,15.0,45,0.00,,,0.00,0.0,meteohub,2013-01-21 01:00:00,
2013-01-20 19:05:00,41.5,21.7,30.13,North,5,13.0,16.0,45,0.00,,,0.00,0.0,meteohub,2013-01-21 01:05:00,
2013-01-20 19:10:00,41.4,22.1,30.14,North,5,13.0,16.0,46,0.00,,,0.00,0.0,meteohub,2013-01-21 01:10:00,
2013-01-20 19:15:00,41.0,22.3,30.13,North,5,17.0,17.0,47,0.00,,,0.00,0.0,meteohub,2013-01-21 01:15:00,
2013-01-20 19:20:00,40.8,22.6,30.14,North,11,13.0,17.0,48,0.00,,,0.00,0.0,meteohub,2013-01-21 01:20:00,
2013-01-20 19:25:00,40.6,22.5,30.14,NNE,19,10.0,17.0,48,0.00,,,0.00,0.0,meteohub,2013-01-21 01:25:00,
2013-01-20 19:30:00,40.1,22.5,30.14,NNE,17,12.0,18.0,49,0.00,,,0.00,0.0,meteohub,2013-01-21 01:30:00,
2013-01-20 19:35:00,39.7,22.6,30.15,NNE,17,13.0,18.0,50,0.00,,,0.00,0.0,meteohub,2013-01-21 01:35:00,
2013-01-20 19:40:00,39.4,23.2,30.15,NNE,14,12.0,14.0,52,0.00,,,0.00,0.0,meteohub,2013-01-21 01:40:00,
2013-01-20 19:45:00,39.0,22.8,30.16,NNE,27,5.0,15.0,52,0.00,,,0.00,0.0,meteohub,2013-01-21 01:45:00,
2013-01-20 19:50:00,38.7,23.0,30.16,NE,39,10.0,15.0,53,0.00,,,0.00,0.0,meteohub,2013-01-21 01:50:00,
2013-01-20 19:55:00,38.5,23.4,30.16,NNE,23,9.0,15.0,54,0.00,,,0.00,0.0,meteohub,2013-01-21 01:55:00,
2013-01-20 20:00:00,38.1,23.4,30.16,NNE,14,9.0,15.0,55,0.00,,,0.00,0.0,meteohub,2013-01-21 02:00:00,
2013-01-20 20:05:00,37.9,23.7,30.16,North,9,11.0,15.0,56,0.00,,,0.00,0.0,meteohub,2013-01-21 02:05:00,
2013-01-20 20:10:00,37.6,23.7,30.16,NNE,17,14.0,15.0,57,0.00,,,0.00,0.0,meteohub,2013-01-21 02:10:00,
2013-01-20 20:15:00,37.4,23.9,30.16,NNE,21,10.0,15.0,58,0.00,,,0.00,0.0,meteohub,2013-01-21 02:15:00,
2013-01-20 20:20:00,37.2,23.7,30.16,North,11,13.0,15.0,58,0.00,,,0.00,0.0,meteohub,2013-01-21 02:20:00,
2013-01-20 20:25:00,37.0,24.1,30.16,NNE,17,17.0,17.0,59,0.00,,,0.00,0.0,meteohub,2013-01-21 02:25:00,
2013-01-20 20:30:00,36.9,24.3,30.17,NNE,19,13.0,19.0,60,0.00,,,0.00,0.0,meteohub,2013-01-21 02:30:00,
2013-01-20 20:36:00,36.1,24.1,30.17,NNE,15,11.0,19.0,61,0.00,,,0.00,0.0,meteohub,2013-01-21 02:36:00,
2013-01-20 20:41:00,36.0,24.6,30.18,North,10,12.0,19.0,63,0.00,,,0.00,0.0,meteohub,2013-01-21 02:41:00,
2013-01-20 20:46:00,36.0,24.6,30.18,North,5,13.0,18.0,63,0.00,,,0.00,0.0,meteohub,2013-01-21 02:46:00,
2013-01-20 20:51:00,35.8,24.8,30.19,NNE,24,10.0,19.0,64,0.00,,,0.00,0.0,meteohub,2013-01-21 02:51:00,
2013-01-20 20:56:00,35.4,24.8,30.19,NNE,17,8.0,19.0,65,0.00,,,0.00,0.0,meteohub,2013-01-21 02:56:00,
2013-01-20 21:01:00,35.2,24.6,30.19,NNE,24,14.0,19.0,65,0.00,,,0.00,0.0,meteohub,2013-01-21 03:01:00,
2013-01-20 21:06:00,35.1,24.8,30.19,NNE,26,13.0,19.0,66,0.00,,,0.00,0.0,meteohub,2013-01-21 03:06:00,
2013-01-20 21:11:00,34.9,24.6,30.20,NNE,15,15.0,19.0,66,0.00,,,0.00,0.0,meteohub,2013-01-21 03:11:00,
2013-01-20 21:17:00,34.3,24.4,30.20,NNE,23,11.0,19.0,67,0.00,,,0.00,0.0,meteohub,2013-01-21 03:17:00,
2013-01-20 21:22:00,34.2,24.6,30.20,North,5,15.0,17.0,68,0.00,,,0.00,0.0,meteohub,2013-01-21 03:22:00,
2013-01-20 21:27:00,34.0,24.8,30.20,NE,34,12.0,18.0,69,0.00,,,0.00,0.0,meteohub,2013-01-21 03:27:00,
2013-01-20 21:32:00,33.8,24.8,30.21,NNE,20,9.0,19.0,69,0.00,,,0.00,0.0,meteohub,2013-01-21 03:32:00,
2013-01-20 21:37:00,33.4,24.8,30.21,North,5,13.0,19.0,70,0.00,,,0.00,0.0,meteohub,2013-01-21 03:37:00,
2013-01-20 21:42:00,33.1,24.6,30.22,NNE,24,13.0,19.0,71,0.00,,,0.00,0.0,meteohub,2013-01-21 03:42:00,
2013-01-20 21:47:00,32.7,24.4,30.22,NNE,17,13.0,17.0,71,0.00,,,0.00,0.0,meteohub,2013-01-21 03:47:00,
2013-01-20 21:53:00,32.5,24.4,30.22,NNE,20,10.0,16.0,72,0.00,,,0.00,0.0,meteohub,2013-01-21 03:53:00,
2013-01-20 21:58:00,32.2,24.4,30.22,NNE,18,12.0,17.0,73,0.00,,,0.00,0.0,meteohub,2013-01-21 03:58:00,
2013-01-20 22:03:00,31.8,24.1,30.23,NNE,29,9.0,17.0,73,0.00,,,0.00,0.0,meteohub,2013-01-21 04:03:00,
2013-01-20 22:08:00,31.6,24.3,30.23,NNE,24,8.0,17.0,74,0.00,,,0.00,0.0,meteohub,2013-01-21 04:08:00,
2013-01-20 22:13:00,31.5,24.4,30.24,NNE,15,8.0,16.0,75,0.00,,,0.00,0.0,meteohub,2013-01-21 04:13:00,
2013-01-20 22:18:00,30.9,23.9,30.24,NNE,26,10.0,16.0,75,0.00,,,0.00,0.0,meteohub,2013-01-21 04:18:00,
2013-01-20 22:23:00,30.9,24.3,30.25,NNE,23,9.0,15.0,76,0.00,,,0.00,0.0,meteohub,2013-01-21 04:23:00,
2013-01-20 22:28:00,30.7,24.1,30.25,NNE,29,14.0,15.0,76,0.00,,,0.00,0.0,meteohub,2013-01-21 04:28:00,
2013-01-20 22:33:00,30.6,24.3,30.25,NE,35,10.0,14.0,77,0.00,,,0.00,0.0,meteohub,2013-01-21 04:33:00,
2013-01-20 22:38:00,30.4,24.1,30.25,NE,35,9.0,15.0,77,0.00,,,0.00,0.0,meteohub,2013-01-21 04:38:00,
2013-01-20 22:43:00,30.2,24.3,30.26,NNE,26,11.0,15.0,78,0.00,,,0.00,0.0,meteohub,2013-01-21 04:43:00,
2013-01-20 22:48:00,30.0,24.1,30.26,NE,38,10.0,15.0,78,0.00,,,0.00,0.0,meteohub,2013-01-21 04:48:00,
2013-01-20 22:53:00,29.8,23.9,30.26,NE,40,11.0,14.0,78,0.00,,,0.00,0.0,meteohub,2013-01-21 04:53:00,
2013-01-20 22:58:00,29.7,23.7,30.27,NE,46,10.0,14.0,78,0.00,,,0.00,0.0,meteohub,2013-01-21 04:58:00,
2013-01-20 23:01:00,29.7,23.9,30.27,NE,41,8.0,14.0,79,0.00,,,0.00,0.0,meteohub,2013-01-21 05:01:00,
2013-01-20 23:02:00,29.5,23.7,30.27,NE,35,10.0,13.0,79,0.00,,,0.00,0.0,meteohub,2013-01-21 05:02:00,
2013-01-20 23:03:00,29.5,23.7,30.27,NE,39,6.0,13.0,79,0.00,,,0.00,0.0,meteohub,2013-01-21 05:03:00,
2013-01-20 23:08:00,29.1,23.4,30.27,NE,36,9.0,13.0,79,0.00,,,0.00,0.0,meteohub,2013-01-21 05:08:00,
2013-01-20 23:13:00,28.9,23.2,30.27,NE,38,6.0,13.0,79,0.00,,,0.00,0.0,meteohub,2013-01-21 05:13:00,
2013-01-20 23:18:00,28.8,23.4,30.27,NNE,27,8.0,13.0,80,0.00,,,0.00,0.0,meteohub,2013-01-21 05:18:00,
2013-01-20 23:24:00,28.6,23.2,30.29,NNE,32,9.0,13.0,80,0.00,,,0.00,0.0,meteohub,2013-01-21 05:24:00,
2013-01-20 23:29:00,28.6,23.5,30.28,NNE,30,11.0,13.0,81,0.00,,,0.00,0.0,meteohub,2013-01-21 05:29:00,
2013-01-20 23:34:00,28.4,23.4,30.29,NE,46,7.0,13.0,81,0.00,,,0.00,0.0,meteohub,2013-01-21 05:34:00,
2013-01-20 23:39:00,28.2,23.2,30.29,NE,34,12.0,15.0,81,0.00,,,0.00,0.0,meteohub,2013-01-21 05:39:00,
2013-01-20 23:44:00,28.0,23.0,30.29,NE,40,8.0,15.0,81,0.00,,,0.00,0.0,meteohub,2013-01-21 05:44:00,
2013-01-20 23:49:00,27.9,22.8,30.29,NNE,30,8.0,14.0,81,0.00,,,0.00,0.0,meteohub,2013-01-21 05:49:00,
2013-01-20 23:54:00,27.7,22.8,30.29,NE,34,9.0,14.0,82,0.00,,,0.00,0.0,meteohub,2013-01-21 05:54:00,
2013-01-20 23:59:00,27.3,22.6,30.29,NE,36,8.0,14.0,82,0.00,,,0.00,0.0,meteohub,2013-01-21 05:59:00,